Aérodrome :
LOGIN :

S'inscrire | Disclaimer

   EN    FR    IT 

 










Légende :    VFR   VFR Marginal   IFR   IFR Intensif   IFR Très Intensif
Visi : 
Plafond : 
>= 8 km
>= 3000ft
5 à 8 km
1000 à 3000 ft
1500m à 5 km
500 à 1000 ft
800 à 1500m
200 à 500 ft
< 800m
< 200 ft
Symboles :   Orages  Brouillard  Fortes neiges  Fortes précipitations  Vent > 20 kt
SIGMETs :   Divers  Orages  Givrage  Turbulence  Onde Orograph.  Cendres Volcan.






- Altitude de l'aérodrome : 545 ft
- Code IATA : PZY


LZPP - Piešťany

DERNIER METAR :
  • 020600Z VRB02KT 6000 FEW040 06/06 Q1009

METARs EXPIRÉS :
  • 020530Z VRB02KT 5000 BR NSC 04/04 Q1009
  • 020500Z 03005KT 6000 NSC 06/06 Q1009
  • 020430Z AUTO 32005KT 6000 05/04 Q1009
  • 012100Z AUTO 13009KT 9999 OVC037/// 12/08 Q1009
  • 020400Z AUTO VRB02KT 8000 05/04 Q1009
  • 020330Z AUTO 02004KT 9999 NCD 07/06 Q1009
  • 020300Z AUTO VRB02KT 9999 NCD 06/05 Q1009
  • 020230Z AUTO 26004KT 9999 NCD 06/05 Q1009
  • 020200Z AUTO VRB03KT 9999 NCD 09/07 Q1009
  • 020130Z AUTO 11006KT 9999 09/07 Q1009

TAF TAF LZPP
Valide du 02 à 06h jusqu'au 02 à 15h UTC


020515Z 0206/0215 15010KT 9999 SCT025 BKN035
TEMPO 0208/0215 -RA BKN012
PROB30
TEMPO 0209/0215 3500 RA



MET'MAP, la Météo Aéronautique d'un coup d'oeil ! - Copyright ORBIFLY Décembre 2007 - Disclaimer

ORBIFLY MET'MAP TEAM :

Programmation & Développement : Alexandra Zaïnal
Sur une idée originale de : Baudouin d'Aumeries
Soutien technique & logistique : Manuel Goepfert
Assistance : Marc-Olivier Méhu




SOURCES & CREDITS :

   NOAA